17:16
Airports
History
Links
Donate
Help keep this website running!
PayPal
Bitcoin
Information on this page is community maintained and may be outdated or inaccurate and is intended for reference only or PC simulator navigating!
Always use approved charts for navigating.
EDMN
MINDELHEIM MATTSIESEdited 07-Mar-2012
MINDELHEIM MATTSIES (EDMN)
Tussenhausen, Bayern, Germany (86874)
(C)
Lat/Lng:48° 6' 31.8" N / 10° 31' 27.6" E
48.108834 / 10.524333
Elevation:1857'ft 566mMSL
ID / ICAO:EDMN
Runways:1
Longest:(15-33) 1,142.6m 3,749ft Asphalt
Controlled:Yes
Distance To
Airport ID:
Airport Radio Frequencies
Tower: 126.95
Nearby VORs <50NM
Nearby NDBs
Nearby WeatherUpdated 04-24-17 16:20 GMT
Nearby weather at ETSL, LECHFELD located 16.4 nautical miles from EDMN
Altimeter: 29.88
Visibility: 6.2 statute miles
Wind: 4 knots (270°)
Temp: 16°c 61°f
Humidity: 36.1%

METAR: ETSL 241620Z 27004KT 9999 FEW060 BKN320 16/01 Q1012 BLU+

(Powered by phpweather)
Runway 15 / 33
Dimensions:1142.6 x 20.1m 3749' x 66'ft
Surface:Asphalt
Runway 15 [A]Runway 33 [B]
Heading:154°TH 334°TH
Lat:
Lng:
48° 6' 48.56"N
10° 31' 15.56"E
48° 6' 15.04"N
10° 31' 39.63"E
Google Map
Nearby Airports
(U) MEMMINGEN ALLGAU 15.6 NM
EDJA WSW 237°
(C) LECHFELD 16.4 NM
ETSL (WX) ENE 71°
(C) Kaufbeuren 17.5 NM
ED08 SSE 166°
(C) Landsberg Lech 17.8 NM
ETSA (WX) E 98°
(C) Tannheim 20.7 NM
EDMT WSW 250°
(C) Jesenwang 28.1 NM
EDMJ E 80°
(C) Augsburg 28.8 NM
EDMA (WX) NE 40°
VFR Chart
Flight Planning at SkyVector.com